Time;durP1;ratioP1;P1;durP2;ratioP2;P2;SDS_P1;SDS_P2;PMS_P1;PMS_P2;Temp;Humidity;BMP_temperature;BMP_pressure;BME280_temperature;BME280_humidity;BME280_pressure;Samples;Min_cycle;Max_cycle;Signal;HPM_P1;HPM_P2
2022/03/04 00:01:47;;;;;;;13.35;7.68;;;3.10;49.30;;;;;;7366875;19;20155;-46
2022/03/04 00:04:17;;;;;;;11.40;7.85;;;3.00;49.40;;;;;;7359364;19;20133;-47
2022/03/04 00:06:46;;;;;;;15.23;9.38;;;2.80;49.80;;;;;;7350202;19;20157;-47
2022/03/04 00:09:16;;;;;;;14.60;9.27;;;2.80;50.10;;;;;;7357386;19;20135;-46
2022/03/04 00:11:47;;;;;;;15.38;9.10;;;2.70;50.40;;;;;;7362273;19;20964;-46
2022/03/04 00:14:17;;;;;;;15.98;8.85;;;2.80;50.40;;;;;;7359366;19;20127;-46
2022/03/04 00:16:52;;;;;;;17.50;9.70;;;2.80;50.40;;;;;;7356475;19;20155;-46
2022/03/04 00:19:22;;;;;;;16.38;9.00;;;2.90;49.90;;;;;;7360092;19;20139;-46
2022/03/04 00:21:53;;;;;;;14.30;9.45;;;2.80;49.80;;;;;;7362116;19;20653;-46
2022/03/04 00:24:27;;;;;;;12.95;8.15;;;2.80;50.30;;;;;;7360143;19;20414;-46
2022/03/04 00:26:58;;;;;;;13.70;8.75;;;2.80;50.20;;;;;;7358409;19;20214;-46
2022/03/04 00:29:28;;;;;;;15.98;9.93;;;2.70;50.50;;;;;;7355256;19;20861;-46
2022/03/04 00:32:02;;;;;;;16.73;9.73;;;;;;;;;;7354774;19;20626;-46
2022/03/04 00:34:32;;;;;;;14.30;8.38;;;;;;;;;;7356737;19;20183;-46
2022/03/04 00:37:01;;;;;;;15.45;10.15;;;;;;;;;;7360496;19;20127;-46
2022/03/04 00:39:31;;;;;;;18.23;9.13;;;2.70;50.50;;;;;;7357204;19;20179;-46
2022/03/04 00:42:00;;;;;;;14.82;9.07;;;2.60;51.10;;;;;;7359132;19;20222;-47
2022/03/04 00:44:30;;;;;;;13.45;8.27;;;2.40;50.90;;;;;;7358494;19;20142;-46
2022/03/04 00:47:02;;;;;;;18.73;10.25;;;2.50;51.00;;;;;;7355812;19;20139;-47
2022/03/04 00:49:34;;;;;;;12.85;8.30;;;2.50;51.20;;;;;;7354914;19;20140;-46
2022/03/04 00:52:03;;;;;;;12.00;8.00;;;2.40;51.40;;;;;;7362649;19;20768;-46
2022/03/04 00:54:33;;;;;;;19.05;10.15;;;2.30;51.30;;;;;;7359171;19;20142;-47
2022/03/04 00:57:03;;;;;;;11.68;8.07;;;2.40;51.50;;;;;;7358869;19;20140;-46
2022/03/04 00:59:37;;;;;;;14.85;10.05;;;2.30;51.20;;;;;;7358408;19;20151;-47
2022/03/04 01:02:09;;;;;;;16.15;8.15;;;2.20;51.80;;;;;;7362714;19;20136;-46
2022/03/04 01:04:39;;;;;;;16.05;9.50;;;2.20;51.50;;;;;;7356436;19;20154;-46
2022/03/04 01:07:08;;;;;;;12.93;8.95;;;2.20;51.70;;;;;;7357834;19;20127;-46
2022/03/04 01:09:38;;;;;;;15.18;9.27;;;2.20;51.50;;;;;;7363039;19;20231;-46
2022/03/04 01:12:11;;;;;;;16.65;9.98;;;2.20;51.40;;;;;;7356410;19;20123;-46
2022/03/04 01:14:41;;;;;;;15.70;9.10;;;2.20;51.60;;;;;;7367839;19;20140;-46
2022/03/04 01:17:13;;;;;;;15.65;9.65;;;2.20;51.80;;;;;;7356900;19;20809;-47
2022/03/04 01:19:45;;;;;;;14.02;9.45;;;2.20;51.80;;;;;;7350734;19;20131;-45
2022/03/04 01:22:14;;;;;;;14.07;9.15;;;2.20;51.90;;;;;;7361483;19;20140;-45
2022/03/04 01:24:44;;;;;;;12.52;7.70;;;2.10;52.00;;;;;;7355091;19;20144;-46
2022/03/04 01:27:13;;;;;;;12.75;8.43;;;2.10;52.10;;;;;;7354876;19;20683;-47
2022/03/04 01:29:43;;;;;;;16.98;9.15;;;2.20;52.20;;;;;;7358920;19;20784;-46
2022/03/04 01:32:15;;;;;;;14.25;8.95;;;2.20;52.00;;;;;;7358741;19;20147;-46
2022/03/04 01:34:45;;;;;;;15.68;8.90;;;2.20;52.10;;;;;;7352954;19;20160;-46
2022/03/04 01:37:14;;;;;;;12.65;8.45;;;2.10;51.90;;;;;;7362272;19;20668;-46
2022/03/04 01:39:44;;;;;;;16.77;9.73;;;2.10;51.70;;;;;;7356294;19;20146;-46
2022/03/04 01:42:14;;;;;;;14.23;8.32;;;2.10;51.70;;;;;;7355832;19;20857;-46
2022/03/04 01:44:46;;;;;;;22.80;8.75;;;2.10;52.10;;;;;;7362945;19;20140;-46
2022/03/04 01:47:18;;;;;;;16.52;9.25;;;2.00;52.00;;;;;;7359782;19;20135;-46
2022/03/04 01:49:48;;;;;;;14.25;8.60;;;2.00;52.20;;;;;;7371706;19;20579;-47
2022/03/04 01:52:21;;;;;;;16.23;9.73;;;2.00;51.70;;;;;;7366476;19;20697;-46
2022/03/04 01:54:50;;;;;;;11.85;7.97;;;1.90;52.30;;;;;;7366418;19;20128;-46
2022/03/04 01:57:20;;;;;;;14.05;8.35;;;1.90;52.10;;;;;;7367854;19;20161;-47
2022/03/04 01:59:51;;;;;;;14.15;9.15;;;2.00;51.70;;;;;;7370007;19;20618;-46
2022/03/04 02:02:24;;;;;;;13.93;8.63;;;1.90;51.70;;;;;;7367364;19;20123;-46
2022/03/04 02:04:57;;;;;;;13.02;8.93;;;2.00;52.20;;;;;;7374363;19;20194;-46
2022/03/04 02:07:27;;;;;;;14.00;8.52;;;2.00;52.10;;;;;;7362366;19;20142;-47
2022/03/04 02:09:57;;;;;;;14.88;8.80;;;1.90;52.10;;;;;;7350599;19;20138;-46
2022/03/04 02:12:27;;;;;;;16.08;9.60;;;1.90;52.40;;;;;;7364848;19;20224;-46
2022/03/04 02:14:59;;;;;;;18.60;9.80;;;1.80;52.10;;;;;;7365952;19;20818;-46
2022/03/04 02:17:31;;;;;;;14.65;9.73;;;1.80;52.40;;;;;;7360392;19;20135;-47
2022/03/04 02:20:03;;;;;;;19.67;9.00;;;1.70;52.80;;;;;;7365323;19;20535;-47
2022/03/04 02:22:40;;;;;;;15.93;9.23;;;1.70;52.60;;;;;;7362085;19;20127;-46
2022/03/04 02:25:10;;;;;;;14.95;9.20;;;1.70;52.70;;;;;;7369985;19;20138;-46
2022/03/04 02:27:42;;;;;;;18.30;9.93;;;1.60;52.50;;;;;;7365293;19;20641;-46
2022/03/04 02:30:13;;;;;;;18.10;11.18;;;1.70;52.80;;;;;;7366828;19;20134;-46
2022/03/04 02:32:43;;;;;;;13.50;8.80;;;1.70;52.90;;;;;;7367528;19;20585;-45
2022/03/04 02:35:15;;;;;;;16.25;10.68;;;1.70;52.70;;;;;;7365609;19;20257;-45
2022/03/04 02:37:48;;;;;;;17.90;10.35;;;1.60;52.90;;;;;;7357142;19;20160;-46
2022/03/04 02:40:17;;;;;;;20.83;10.15;;;1.60;53.40;;;;;;7366175;19;20135;-47
2022/03/04 02:42:47;;;;;;;16.15;9.52;;;1.60;53.30;;;;;;7368830;19;20165;-47
2022/03/04 02:45:18;;;;;;;14.40;8.77;;;1.50;53.70;;;;;;7361197;19;20127;-46
2022/03/04 02:47:50;;;;;;;16.00;10.15;;;1.50;54.30;;;;;;7358998;19;20483;-46
2022/03/04 02:50:23;;;;;;;16.63;10.60;;;1.50;53.90;;;;;;7358080;19;20207;-46
2022/03/04 02:52:57;;;;;;;16.80;10.93;;;1.60;54.10;;;;;;7363500;19;20561;-46
2022/03/04 02:55:30;;;;;;;18.55;10.70;;;1.60;54.10;;;;;;7358086;19;20135;-46
2022/03/04 02:58:04;;;;;;;16.63;10.50;;;1.50;53.70;;;;;;7362681;19;20535;-46
2022/03/04 03:00:36;;;;;;;16.25;9.73;;;1.50;53.50;;;;;;7371954;19;20499;-46
2022/03/04 03:03:08;;;;;;;12.95;8.35;;;1.50;53.80;;;;;;7370798;19;21222;-46
2022/03/04 03:05:38;;;;;;;14.32;9.75;;;1.60;53.70;;;;;;7361146;19;20889;-46
2022/03/04 03:08:15;;;;;;;17.17;9.25;;;1.50;53.10;;;;;;7368641;19;20138;-46
2022/03/04 03:10:45;;;;;;;14.43;9.20;;;1.50;53.00;;;;;;7356316;19;20135;-46
2022/03/04 03:13:14;;;;;;;15.45;9.70;;;1.50;53.30;;;;;;7367995;19;20606;-46
2022/03/04 03:15:44;;;;;;;16.30;9.77;;;1.40;53.60;;;;;;7366711;19;20627;-46
2022/03/04 03:18:16;;;;;;;14.18;9.98;;;1.40;54.00;;;;;;7364776;19;20139;-45
2022/03/04 03:20:46;;;;;;;18.50;9.93;;;1.50;53.70;;;;;;7361523;19;23977;-46
2022/03/04 03:23:18;;;;;;;14.30;9.38;;;1.40;53.70;;;;;;7359457;19;20199;-46
2022/03/04 03:25:50;;;;;;;16.17;9.75;;;1.40;53.40;;;;;;7356894;19;20138;-46
2022/03/04 03:28:22;;;;;;;13.45;9.30;;;1.40;53.10;;;;;;7368756;19;20132;-45
2022/03/04 03:30:52;;;;;;;17.58;9.48;;;1.40;53.40;;;;;;7362605;19;20135;-46
2022/03/04 03:33:21;;;;;;;19.17;10.63;;;1.40;53.50;;;;;;7362768;19;20549;-46
2022/03/04 03:35:54;;;;;;;15.40;9.90;;;1.40;53.70;;;;;;7361832;19;20159;-46
2022/03/04 03:38:26;;;;;;;16.13;9.50;;;1.30;53.70;;;;;;7366659;19;20135;-46
2022/03/04 03:40:58;;;;;;;19.27;10.52;;;1.30;54.20;;;;;;7361630;19;20135;-46
2022/03/04 03:43:32;;;;;;;16.60;9.82;;;1.30;53.80;;;;;;7358810;19;20726;-46
2022/03/04 03:46:02;;;;;;;16.83;10.65;;;1.20;53.50;;;;;;7361823;19;20726;-47
2022/03/04 03:48:34;;;;;;;15.55;9.55;;;1.20;53.80;;;;;;7362319;19;20131;-46
2022/03/04 03:51:03;;;;;;;15.95;8.82;;;1.30;54.10;;;;;;7363573;19;20183;-46
2022/03/04 03:53:38;;;;;;;19.35;10.75;;;1.20;53.90;;;;;;7361882;19;20128;-46
2022/03/04 03:56:10;;;;;;;17.77;9.75;;;1.10;53.70;;;;;;7360857;19;20898;-46
2022/03/04 03:58:40;;;;;;;16.90;9.27;;;1.10;54.00;;;;;;7351802;19;20235;-46
2022/03/04 04:01:14;;;;;;;15.98;10.23;;;1.10;54.20;;;;;;7351344;19;20661;-47
2022/03/04 04:03:44;;;;;;;20.88;10.00;;;1.10;54.30;;;;;;7347591;19;20148;-47
2022/03/04 04:06:14;;;;;;;16.98;9.95;;;1.10;54.50;;;;;;7349477;19;20606;-46
2022/03/04 04:08:46;;;;;;;23.33;10.48;;;1.10;54.30;;;;;;7346454;19;20127;-45
2022/03/04 04:11:15;;;;;;;15.35;11.23;;;1.10;54.20;;;;;;7350497;19;20132;-47
2022/03/04 04:13:50;;;;;;;23.90;12.43;;;1.10;54.40;;;;;;7354547;19;20131;-46
2022/03/04 04:16:22;;;;;;;19.02;9.80;;;1.00;54.30;;;;;;7353850;19;20737;-46
2022/03/04 04:18:51;;;;;;;15.40;9.32;;;0.90;54.60;;;;;;7357077;19;20138;-46
2022/03/04 04:21:21;;;;;;;15.60;10.80;;;1.00;54.60;;;;;;7358819;19;20136;-46
2022/03/04 04:23:58;;;;;;;20.67;10.20;;;1.10;54.80;;;;;;7365436;19;20513;-45
2022/03/04 04:26:28;;;;;;;16.10;9.55;;;1.10;54.90;;;;;;7362175;19;20127;-46
2022/03/04 04:29:00;;;;;;;17.00;10.13;;;1.00;54.90;;;;;;7367166;19;20155;-47
2022/03/04 04:31:31;;;;;;;16.33;10.15;;;1.00;55.00;;;;;;7372636;19;20131;-46
2022/03/04 04:34:03;;;;;;;19.70;10.30;;;1.00;55.20;;;;;;7358479;19;20198;-46
2022/03/04 04:36:33;;;;;;;17.90;10.07;;;0.90;55.50;;;;;;7358076;19;20618;-46
2022/03/04 04:39:08;;;;;;;17.92;11.15;;;0.90;55.40;;;;;;7370465;19;20131;-46
2022/03/04 04:41:40;;;;;;;20.00;11.02;;;1.00;55.20;;;;;;7361957;19;20665;-46
2022/03/04 04:44:15;;;;;;;19.30;11.10;;;1.00;55.50;;;;;;7361113;19;20143;-46
2022/03/04 04:46:46;;;;;;;19.42;10.40;;;1.00;55.60;;;;;;7353355;19;21171;-45
2022/03/04 04:49:18;;;;;;;16.52;10.15;;;1.00;55.70;;;;;;7364127;19;20824;-46
2022/03/04 04:51:48;;;;;;;16.88;10.68;;;0.90;56.00;;;;;;7367137;19;20168;-46
2022/03/04 04:54:25;;;;;;;19.92;11.65;;;0.90;56.10;;;;;;7373318;19;20152;-46
2022/03/04 04:57:00;;;;;;;18.73;10.80;;;0.90;56.00;;;;;;7358580;19;20140;-46
2022/03/04 04:59:30;;;;;;;21.33;11.52;;;0.90;55.60;;;;;;7360340;19;20160;-46
2022/03/04 05:02:04;;;;;;;20.45;10.85;;;0.90;55.50;;;;;;7359924;19;20154;-46
2022/03/04 05:04:36;;;;;;;17.63;9.77;;;1.00;55.60;;;;;;7356730;19;20440;-46
2022/03/04 05:07:06;;;;;;;20.02;11.68;;;1.00;55.60;;;;;;7356688;19;20545;-46
2022/03/04 05:09:38;;;;;;;20.85;10.85;;;0.90;55.80;;;;;;7366084;19;20534;-46
2022/03/04 05:12:10;;;;;;;18.35;11.50;;;0.80;55.80;;;;;;7356028;19;20152;-46
2022/03/04 05:14:40;;;;;;;19.25;11.50;;;0.70;56.40;;;;;;7359194;19;20131;-48
2022/03/04 05:17:09;;;;;;;20.98;11.52;;;0.60;56.60;;;;;;7353740;19;20131;-46
2022/03/04 05:19:39;;;;;;;20.15;12.02;;;0.60;56.80;;;;;;7360752;19;20617;-46
2022/03/04 05:22:08;;;;;;;21.75;11.75;;;0.60;56.60;;;;;;7366749;19;20601;-46
2022/03/04 05:24:40;;;;;;;17.65;10.30;;;0.70;56.70;;;;;;7357926;19;20131;-46
2022/03/04 05:27:12;;;;;;;18.33;9.65;;;0.60;56.70;;;;;;7350974;19;20135;-46
2022/03/04 05:29:42;;;;;;;22.55;11.73;;;0.60;56.90;;;;;;7359028;19;20166;-45
2022/03/04 05:32:12;;;;;;;21.25;11.98;;;0.60;57.10;;;;;;7356303;19;20139;-44
2022/03/04 05:34:44;;;;;;;18.08;9.85;;;0.50;57.10;;;;;;7351779;19;20622;-44
2022/03/04 05:37:13;;;;;;;18.25;10.95;;;0.50;57.50;;;;;;7350383;19;20143;-44
2022/03/04 05:39:45;;;;;;;22.42;12.85;;;0.40;57.40;;;;;;7354299;19;21156;-44
2022/03/04 05:42:15;;;;;;;25.92;12.07;;;0.50;57.50;;;;;;7351301;19;20128;-44
2022/03/04 05:44:44;;;;;;;24.92;13.05;;;0.50;57.40;;;;;;7359798;19;20150;-44
2022/03/04 05:47:14;;;;;;;21.50;12.60;;;0.50;57.10;;;;;;7357371;19;20144;-44
2022/03/04 05:49:43;;;;;;;20.17;10.70;;;0.50;56.90;;;;;;7366004;19;20131;-44
2022/03/04 05:52:13;;;;;;;17.50;11.65;;;0.40;57.20;;;;;;7367609;19;20139;-44
2022/03/04 05:54:45;;;;;;;23.83;12.25;;;0.40;58.20;;;;;;7372979;19;20132;-44
2022/03/04 05:57:14;;;;;;;23.15;11.20;;;0.40;57.50;;;;;;7364973;19;20452;-44
2022/03/04 05:59:46;;;;;;;20.00;10.55;;;0.40;57.30;;;;;;7366922;19;20199;-44
2022/03/04 06:02:18;;;;;;;17.63;10.77;;;0.40;57.70;;;;;;7363087;19;22704;-45
2022/03/04 06:04:47;;;;;;;23.40;11.82;;;0.40;57.80;;;;;;7369965;19;20124;-45
2022/03/04 06:07:17;;;;;;;20.35;11.30;;;0.40;57.50;;;;;;7375907;19;20880;-45
2022/03/04 06:09:49;;;;;;;18.50;11.45;;;0.50;57.50;;;;;;7368975;19;20136;-45
2022/03/04 06:12:19;;;;;;;19.75;11.02;;;0.40;57.80;;;;;;7366671;19;20198;-45
2022/03/04 06:14:51;;;;;;;22.08;12.27;;;0.30;58.10;;;;;;7370649;19;20131;-45
2022/03/04 06:17:21;;;;;;;21.23;11.30;;;0.40;57.70;;;;;;7365098;19;20138;-45
2022/03/04 06:19:51;;;;;;;22.45;11.95;;;0.40;58.10;;;;;;7364961;19;20131;-45
2022/03/04 06:22:21;;;;;;;23.33;11.48;;;0.40;58.20;;;;;;7370482;19;20136;-45
2022/03/04 06:24:55;;;;;;;22.48;12.27;;;0.30;58.20;;;;;;7365014;19;20131;-45
2022/03/04 06:27:29;;;;;;;22.83;12.40;;;0.40;58.10;;;;;;7370302;19;20495;-45
2022/03/04 06:29:59;;;;;;;14.90;11.65;;;0.50;57.70;;;;;;7363460;19;20199;-45
2022/03/04 06:32:28;;;;;;;16.73;11.40;;;0.60;57.60;;;;;;7361277;19;21708;-45
2022/03/04 06:35:00;;;;;;;19.95;12.68;;;0.50;57.60;;;;;;7359785;19;20156;-45
2022/03/04 06:37:30;;;;;;;23.95;13.55;;;0.50;57.90;;;;;;7364100;19;20613;-45
2022/03/04 06:40:06;;;;;;;19.77;11.50;;;0.50;58.30;;;;;;7369398;19;20847;-45
2022/03/04 06:42:42;;;;;;;21.55;10.57;;;0.50;58.60;;;;;;7362876;19;20134;-45
2022/03/04 06:45:12;;;;;;;18.70;11.18;;;0.50;58.60;;;;;;7364711;19;20124;-45
2022/03/04 06:47:41;;;;;;;18.02;11.23;;;0.50;58.60;;;;;;7367712;19;20131;-45
2022/03/04 06:50:13;;;;;;;19.70;13.18;;;0.50;58.50;;;;;;7364877;19;20120;-45
2022/03/04 06:52:43;;;;;;;20.08;10.90;;;0.50;58.70;;;;;;7362057;19;20134;-45
2022/03/04 06:55:15;;;;;;;24.35;10.70;;;0.50;58.90;;;;;;7374146;19;21428;-45
2022/03/04 06:57:46;;;;;;;20.40;11.75;;;0.60;58.70;;;;;;7372240;19;20195;-46
2022/03/04 07:00:17;;;;;;;21.92;12.18;;;0.70;58.70;;;;;;7366145;19;20127;-44
2022/03/04 07:02:52;;;;;;;22.00;11.55;;;0.70;58.40;;;;;;7366445;19;20130;-44
2022/03/04 07:05:22;;;;;;;18.13;11.85;;;0.70;58.30;;;;;;7365067;19;20226;-45
2022/03/04 07:07:51;;;;;;;20.65;11.05;;;0.70;58.30;;;;;;7369413;19;20139;-44
2022/03/04 07:10:24;;;;;;;18.75;12.13;;;0.80;58.20;;;;;;7374385;19;20132;-44
2022/03/04 07:12:54;;;;;;;16.55;11.02;;;0.80;57.60;;;;;;7374047;19;20155;-43
2022/03/04 07:15:23;;;;;;;19.10;12.75;;;0.80;57.20;;;;;;7358616;19;20143;-43
2022/03/04 07:17:55;;;;;;;24.02;11.88;;;0.90;57.70;;;;;;7360392;19;20123;-44
2022/03/04 07:20:25;;;;;;;19.92;12.57;;;1.00;57.50;;;;;;7353783;19;20252;-43
2022/03/04 07:22:59;;;;;;;19.33;11.52;;;1.00;57.30;;;;;;7371218;19;20127;-45
2022/03/04 07:25:33;;;;;;;23.30;13.07;;;1.00;57.30;;;;;;7367858;19;20135;-43
2022/03/04 07:28:08;;;;;;;16.17;10.40;;;1.10;57.50;;;;;;7359411;19;20144;-44
2022/03/04 07:30:38;;;;;;;22.70;11.48;;;1.10;57.40;;;;;;7351761;19;20128;-45
2022/03/04 07:33:08;;;;;;;19.33;11.90;;;1.30;57.20;;;;;;7356878;19;20183;-44
2022/03/04 07:35:44;;;;;;;26.92;13.27;;;1.40;56.60;;;;;;7366790;19;21421;-45
2022/03/04 07:38:14;;;;;;;22.60;13.73;;;1.50;56.50;;;;;;7366786;19;20154;-45
2022/03/04 07:40:49;;;;;;;18.00;12.07;;;1.50;56.20;;;;;;7359656;19;20128;-46
2022/03/04 07:43:23;;;;;;;23.77;12.73;;;1.70;56.00;;;;;;7360344;19;20119;-45
2022/03/04 07:45:55;;;;;;;20.80;13.13;;;1.80;55.80;;;;;;7348163;19;20135;-45
2022/03/04 07:48:27;;;;;;;22.38;12.77;;;1.90;55.80;;;;;;7360768;19;20781;-45
2022/03/04 07:50:59;;;;;;;21.35;13.15;;;2.10;55.40;;;;;;7362186;19;20134;-45
2022/03/04 07:53:31;;;;;;;23.48;14.20;;;2.20;55.10;;;;;;7363146;19;20159;-45
2022/03/04 07:56:03;;;;;;;22.67;12.63;;;2.20;54.80;;;;;;7367732;19;20128;-44
2022/03/04 07:58:35;;;;;;;24.30;14.95;;;2.30;54.60;;;;;;7378139;19;20126;-45
2022/03/04 08:01:05;;;;;;;22.90;12.90;;;2.40;54.10;;;;;;7372645;19;20653;-45
2022/03/04 08:03:38;;;;;;;28.80;14.68;;;2.50;53.60;;;;;;7369633;19;20132;-45
2022/03/04 08:06:07;;;;;;;21.33;13.70;;;2.60;53.60;;;;;;7368959;19;20610;-45
2022/03/04 08:08:40;;;;;;;20.90;13.90;;;2.70;53.70;;;;;;7356443;19;20159;-46
2022/03/04 08:11:12;;;;;;;21.70;14.23;;;2.80;53.20;;;;;;7364820;19;20135;-45
2022/03/04 08:13:44;;;;;;;23.38;13.77;;;3.10;53.00;;;;;;7370642;19;20138;-45
2022/03/04 08:16:13;;;;;;;25.42;13.48;;;3.30;51.60;;;;;;7367626;19;20151;-45
2022/03/04 08:18:43;;;;;;;22.40;13.70;;;3.70;52.00;;;;;;7370744;19;20151;-45
2022/03/04 08:21:15;;;;;;;24.25;13.75;;;4.20;51.70;;;;;;7367316;19;20128;-45
2022/03/04 08:23:46;;;;;;;23.73;13.95;;;4.60;49.30;;;;;;7352568;19;20616;-45
2022/03/04 08:26:20;;;;;;;22.08;14.18;;;5.20;49.00;;;;;;7377165;19;20136;-45
2022/03/04 08:28:50;;;;;;;20.95;14.95;;;5.90;48.10;;;;;;7357029;19;20127;-45
2022/03/04 08:31:19;;;;;;;22.45;14.27;;;6.60;44.80;;;;;;7370104;19;20192;-44
2022/03/04 08:33:50;;;;;;;21.52;14.07;;;7.00;43.50;;;;;;7373201;19;20269;-44
2022/03/04 08:36:20;;;;;;;20.60;14.60;;;6.90;43.10;;;;;;7376436;19;20224;-44
2022/03/04 08:38:50;;;;;;;23.50;14.13;;;6.90;42.80;;;;;;7373737;19;20404;-44
2022/03/04 08:41:24;;;;;;;21.23;14.33;;;7.10;42.70;;;;;;7368004;19;21253;-44
2022/03/04 08:43:53;;;;;;;19.30;13.47;;;7.40;42.20;;;;;;7374553;19;20412;-44
2022/03/04 08:46:27;;;;;;;24.50;14.87;;;7.70;41.70;;;;;;7372105;19;20431;-44
2022/03/04 08:48:58;;;;;;;25.93;15.90;;;7.60;41.20;;;;;;7371580;19;20380;-44
2022/03/04 08:51:29;;;;;;;24.63;15.57;;;7.80;41.50;;;;;;7368515;19;20392;-44
2022/03/04 08:54:02;;;;;;;23.57;16.10;;;8.60;40.20;;;;;;7371898;19;20372;-44
2022/03/04 08:56:34;;;;;;;24.03;15.10;;;8.70;38.60;;;;;;7363851;19;20387;-44
2022/03/04 08:59:04;;;;;;;22.03;15.13;;;8.40;39.70;;;;;;7362642;19;21110;-44
2022/03/04 09:01:36;;;;;;;22.50;16.23;;;8.70;38.60;;;;;;7367560;19;20404;-45
2022/03/04 09:04:06;;;;;;;25.93;16.53;;;9.40;37.50;;;;;;7371767;19;20420;-45
2022/03/04 09:06:36;;;;;;;26.57;16.90;;;10.10;35.10;;;;;;7370676;19;20917;-45
2022/03/04 09:09:10;;;;;;;24.50;16.20;;;11.00;34.30;;;;;;7360149;19;20439;-44
2022/03/04 09:11:44;;;;;;;25.97;16.47;;;11.90;32.30;;;;;;7370598;19;20472;-44
2022/03/04 09:14:19;;;;;;;25.83;17.13;;;12.70;30.50;;;;;;7375944;19;20408;-44
2022/03/04 09:16:49;;;;;;;21.87;16.07;;;13.40;29.60;;;;;;7375535;19;20447;-44
2022/03/04 09:19:19;;;;;;;29.40;18.33;;;13.90;28.90;;;;;;7378676;19;20360;-44
2022/03/04 09:21:48;;;;;;;25.20;18.20;;;14.60;28.20;;;;;;7378566;19;20369;-44
2022/03/04 09:24:18;;;;;;;23.00;18.20;;;15.10;28.00;;;;;;7375725;19;20388;-45
2022/03/04 09:26:50;;;;;;;26.93;17.03;;;15.80;26.50;;;;;;7379126;19;20443;-45
2022/03/04 09:29:22;;;;;;;24.80;17.83;;;16.20;25.60;;;;;;7370196;19;20419;-45
2022/03/04 09:31:51;;;;;;;24.93;18.37;;;16.70;25.50;;;;;;7376127;19;20368;-44
2022/03/04 09:34:21;;;;;;;24.30;18.37;;;17.20;24.90;;;;;;7375180;19;20988;-45
2022/03/04 09:36:50;;;;;;;23.40;17.23;;;17.70;24.40;;;;;;7379264;19;20408;-45
2022/03/04 09:39:20;;;;;;;23.30;17.77;;;18.10;23.80;;;;;;7374114;19;20972;-45
2022/03/04 09:41:52;;;;;;;24.47;18.43;;;18.40;23.40;;;;;;7378743;19;20412;-46
2022/03/04 09:44:22;;;;;;;24.40;19.27;;;18.60;23.10;;;;;;7367826;19;20961;-46
2022/03/04 09:47:00;;;;;;;23.30;18.80;;;18.90;23.00;;;;;;7376431;19;20400;-47
2022/03/04 09:49:36;;;;;;;25.30;16.67;;;18.90;22.30;;;;;;7376632;19;20388;-46
2022/03/04 09:52:06;;;;;;;24.03;18.80;;;19.20;22.60;;;;;;7378018;19;20404;-47
2022/03/04 09:54:37;;;;;;;27.50;18.13;;;19.50;22.10;;;;;;7376842;19;21033;-47
2022/03/04 09:57:09;;;;;;;21.73;18.17;;;20.20;21.80;;;;;;7376195;19;20933;-47
2022/03/04 09:59:40;;;;;;;23.57;19.30;;;20.10;21.40;;;;;;7377054;19;20367;-47
2022/03/04 10:02:10;;;;;;;23.73;18.30;;;20.50;21.00;;;;;;7374188;19;20371;-48
2022/03/04 10:04:42;;;;;;;23.10;18.70;;;20.90;20.60;;;;;;7373468;19;20393;-47
2022/03/04 10:07:13;;;;;;;22.37;18.03;;;21.70;20.40;;;;;;7374852;19;20387;-47
2022/03/04 10:09:46;;;;;;;23.80;19.67;;;22.10;19.70;;;;;;7370804;19;20395;-47
2022/03/04 10:12:22;;;;;;;20.57;17.90;;;22.50;19.90;;;;;;7369012;19;20726;-46
2022/03/04 10:15:00;;;;;;;25.23;19.13;;;21.40;18.90;;;;;;7372545;19;20372;-46
2022/03/04 10:17:32;;;;;;;22.43;18.07;;;21.30;20.00;;;;;;7371483;19;21086;-47
2022/03/04 10:20:03;;;;;;;21.33;17.80;;;22.40;19.60;;;;;;7372872;19;20444;-46
2022/03/04 10:22:42;;;;;;;24.13;18.50;;;23.30;18.60;;;;;;7375810;19;20775;-46
2022/03/04 10:25:24;;;;;;;24.00;19.00;;;23.60;18.00;;;;;;7376785;19;20376;-46
2022/03/04 10:27:56;;;;;;;22.70;18.83;;;24.00;17.90;;;;;;7375958;19;20372;-47
2022/03/04 10:30:33;;;;;;;20.80;18.57;;;24.50;17.60;;;;;;7373640;19;20380;-47
2022/03/04 10:33:09;;;;;;;22.13;18.50;;;24.20;17.70;;;;;;7369826;19;20982;-47
2022/03/04 10:35:42;;;;;;;24.83;19.80;;;24.80;17.60;;;;;;7367201;19;20435;-47
2022/03/04 10:38:24;;;;;;;22.07;18.90;;;25.30;17.00;;;;;;7369483;19;20920;-47
2022/03/04 10:40:54;;;;;;;23.40;19.50;;;25.90;16.80;;;;;;7369044;19;20376;-48
2022/03/04 10:43:35;;;;;;;23.13;19.07;;;25.70;16.40;;;;;;7371066;19;20735;-48
2022/03/04 10:46:08;;;;;;;23.17;18.20;;;25.70;16.40;;;;;;7366585;19;20412;-49
2022/03/04 10:48:39;;;;;;;24.53;19.50;;;25.80;16.50;;;;;;7368299;19;21041;-48
2022/03/04 10:51:11;;;;;;;22.33;18.47;;;26.60;16.10;;;;;;7375205;19;20773;-48
2022/03/04 10:53:43;;;;;;;22.17;18.83;;;27.00;15.80;;;;;;7376697;19;20388;-48
2022/03/04 10:56:12;;;;;;;21.87;19.53;;;27.50;15.10;;;;;;7368510;19;20391;-49
2022/03/04 10:58:45;;;;;;;22.40;18.83;;;26.50;15.30;;;;;;7375122;19;20925;-48
2022/03/04 11:01:19;;;;;;;25.33;19.40;;;25.60;15.60;;;;;;7375794;19;20375;-47
2022/03/04 11:03:53;;;;;;;20.87;18.07;;;24.60;15.70;;;;;;7375509;19;20360;-48
2022/03/04 11:06:22;;;;;;;23.30;18.10;;;26.10;15.70;;;;;;7371374;19;21202;-49
2022/03/04 11:08:54;;;;;;;22.27;18.80;;;27.10;15.40;;;;;;7373397;19;20391;-48
2022/03/04 11:11:28;;;;;;;20.60;18.13;;;27.80;14.70;;;;;;7376970;19;20379;-49
2022/03/04 11:14:02;;;;;;;22.00;17.67;;;28.30;14.40;;;;;;7375402;19;20914;-48
2022/03/04 11:16:32;;;;;;;21.90;17.83;;;29.40;13.70;;;;;;7375424;19;20379;-48
2022/03/04 11:19:02;;;;;;;21.60;19.00;;;28.90;13.90;;;;;;7374396;19;20951;-48
2022/03/04 11:21:32;;;;;;;23.73;18.73;;;29.10;13.70;;;;;;7371282;19;20387;-48
2022/03/04 11:24:03;;;;;;;22.20;18.40;;;29.80;13.60;;;;;;7372173;19;20383;-48
2022/03/04 11:26:33;;;;;;;21.53;19.20;;;30.10;13.40;;;;;;7374945;19;20376;-48
2022/03/04 11:29:30;;;;;;;22.80;19.53;;;30.30;13.10;;;;;;7373653;19;20384;-48
2022/03/04 11:32:01;;;;;;;19.50;17.00;;;29.80;13.20;;;;;;7376798;19;20399;-49
2022/03/04 11:34:37;;;;;;;23.80;19.17;;;28.90;14.00;;;;;;7381859;19;20440;-49
2022/03/04 11:37:07;;;;;;;22.97;18.10;;;29.60;13.30;;;;;;7379684;19;20483;-49
2022/03/04 11:40:03;;;;;;;22.40;17.97;;;29.70;13.20;;;;;;7380260;19;20372;-49
2022/03/04 11:42:39;;;;;;;21.83;18.83;;;29.80;13.10;;;;;;7379995;19;20371;-49
2022/03/04 11:45:13;;;;;;;24.87;20.13;;;30.20;13.20;;;;;;7378653;19;20364;-49
2022/03/04 11:47:47;;;;;;;23.47;18.73;;;30.20;13.30;;;;;;7378912;19;20772;-49
2022/03/04 11:50:30;;;;;;;23.10;17.80;;;29.30;13.70;;;;;;7377101;19;20390;-49
2022/03/04 11:53:18;;;;;;;23.30;18.70;;;29.20;13.60;;;;;;7381852;19;21432;-49
2022/03/04 11:56:14;;;;;;;21.53;16.67;;;30.40;12.90;;;;;;7382219;19;20395;-49
2022/03/04 11:59:10;;;;;;;21.13;17.27;;;30.20;13.00;;;;;;7382583;19;20392;-49
2022/03/04 12:01:48;;;;;;;20.83;18.43;;;31.40;12.30;;;;;;7376832;19;20388;-49
2022/03/04 12:04:21;;;;;;;18.67;16.50;;;31.40;12.70;;;;;;7377212;19;20394;-48
2022/03/04 12:07:09;;;;;;;20.00;17.80;;;31.70;12.50;;;;;;7379114;19;20392;-49
2022/03/04 12:09:39;;;;;;;19.27;17.27;;;32.00;12.30;;;;;;7379045;19;20392;-48
2022/03/04 12:12:18;;;;;;;18.77;16.30;;;31.00;12.60;;;;;;7379469;19;20403;-49
2022/03/04 12:14:49;;;;;;;18.67;16.73;;;32.30;12.10;;;;;;7379586;19;20391;-47
2022/03/04 12:17:22;;;;;;;20.03;16.80;;;32.60;11.80;;;;;;7382740;19;20398;-48
2022/03/04 12:19:55;;;;;;;21.70;17.57;;;31.60;11.70;;;;;;7383230;19;20388;-48
2022/03/04 12:22:28;;;;;;;21.00;16.23;;;31.30;12.20;;;;;;7381983;19;20404;-50
2022/03/04 12:25:01;;;;;;;20.63;16.00;;;32.10;11.60;;;;;;7379248;19;20467;-48
2022/03/04 12:27:40;;;;;;;19.73;15.97;;;32.30;11.80;;;;;;7379411;19;20945;-49
2022/03/04 12:30:20;;;;;;;149.53;36.93;;;30.30;11.90;;;;;;7377586;19;20427;-48
2022/03/04 12:32:57;;;;;;;24.03;16.83;;;31.20;12.10;;;;;;7378918;19;21352;-48
2022/03/04 12:35:26;;;;;;;18.57;15.47;;;31.70;11.40;;;;;;7380419;19;20428;-48
2022/03/04 12:37:56;;;;;;;16.40;14.70;;;31.90;11.40;;;;;;7369290;19;20414;-48
2022/03/04 12:40:27;;;;;;;16.77;13.80;;;32.10;11.10;;;;;;7370535;19;20384;-48
2022/03/04 12:42:58;;;;;;;16.80;13.10;;;31.70;11.20;;;;;;7370765;19;20369;-50
2022/03/04 12:45:28;;;;;;;12.47;11.17;;;31.80;11.00;;;;;;7369777;19;20403;-50
2022/03/04 12:48:03;;;;;;;13.83;12.43;;;31.70;10.50;;;;;;7374352;19;20376;-49
2022/03/04 12:50:33;;;;;;;15.93;12.70;;;31.40;10.90;;;;;;7368191;19;20379;-49
2022/03/04 12:53:20;;;;;;;16.73;14.00;;;31.50;10.90;;;;;;7385045;19;20380;-49
2022/03/04 12:55:52;;;;;;;16.40;12.47;;;31.30;11.10;;;;;;7379921;19;20412;-49
2022/03/04 12:58:37;;;;;;;13.73;11.90;;;32.30;10.90;;;;;;7376159;19;21569;-49
2022/03/04 13:01:07;;;;;;;16.00;13.40;;;31.90;11.20;;;;;;7366887;19;20376;-49
2022/03/04 13:03:45;;;;;;;15.47;13.50;;;31.50;11.40;;;;;;7378519;19;20467;-49